createdAt,value
2022-08-23T00:00:58.720Z,19.29
2022-08-23T00:04:08.421Z,19.22
2022-08-23T00:07:12.599Z,19.13
2022-08-23T00:10:17.127Z,19.02
2022-08-23T00:13:19.243Z,19.02
2022-08-23T00:16:22.109Z,19.01
2022-08-23T00:19:25.843Z,19.09
2022-08-23T00:22:28.277Z,19.00
2022-08-23T00:25:30.417Z,19.06
2022-08-23T00:28:33.381Z,18.98
2022-08-23T00:31:35.496Z,19.05
2022-08-23T00:34:38.818Z,19.05
2022-08-23T00:37:40.985Z,19.13
2022-08-23T00:40:46.555Z,19.07
2022-08-23T00:44:07.421Z,19.08
2022-08-23T00:47:31.925Z,19.07
2022-08-23T00:50:49.523Z,19.12
2022-08-23T00:53:55.589Z,19.06
2022-08-23T00:57:01.282Z,19.08
2022-08-23T01:00:07.513Z,19.09
2022-08-23T01:03:11.420Z,19.13
2022-08-23T01:06:19.403Z,19.10
2022-08-23T01:09:22.399Z,19.20
2022-08-23T01:12:33.212Z,19.26
2022-08-23T01:15:43.315Z,19.22
2022-08-23T01:18:47.733Z,19.04
2022-08-23T01:22:05.215Z,18.96
2022-08-23T01:25:11.505Z,18.97
2022-08-23T01:28:14.423Z,18.95
2022-08-23T01:31:18.550Z,19.03
2022-08-23T01:34:26.337Z,19.09
2022-08-23T01:37:28.929Z,19.09
2022-08-23T01:40:31.843Z,19.03
2022-08-23T01:43:34.387Z,19.13
2022-08-23T01:46:36.923Z,19.10
2022-08-23T01:49:39.305Z,19.16
2022-08-23T01:52:46.731Z,19.05
2022-08-23T01:55:49.957Z,18.92
2022-08-23T01:58:52.372Z,18.91
2022-08-23T02:01:55.770Z,18.77
2022-08-23T02:04:58.342Z,18.74
2022-08-23T02:08:23.899Z,18.74
2022-08-23T02:11:30.451Z,18.75
2022-08-23T02:14:33.024Z,18.78
2022-08-23T02:17:36.218Z,18.77
2022-08-23T02:20:43.715Z,18.83
2022-08-23T02:23:46.948Z,18.89
2022-08-23T02:26:56.775Z,18.78
2022-08-23T02:29:59.528Z,18.83
2022-08-23T02:33:05.636Z,18.91
2022-08-23T02:36:09.793Z,18.87
2022-08-23T02:39:13.585Z,18.97
2022-08-23T02:42:16.526Z,19.08
2022-08-23T02:45:19.061Z,19.11
2022-08-23T02:48:21.693Z,18.98
2022-08-23T02:51:26.199Z,18.99
2022-08-23T02:54:28.641Z,19.09
2022-08-23T02:57:31.708Z,19.13
2022-08-23T03:00:34.484Z,19.17
2022-08-23T03:03:37.772Z,19.16
2022-08-23T03:06:40.920Z,19.24
2022-08-23T03:09:43.490Z,19.26
2022-08-23T03:12:45.766Z,19.21
2022-08-23T03:15:48.432Z,19.23
2022-08-23T03:18:51.666Z,19.18
2022-08-23T03:21:54.107Z,19.15
2022-08-23T03:24:57.275Z,19.18
2022-08-23T03:28:04.679Z,19.15
2022-08-23T03:31:08.757Z,19.21
2022-08-23T03:34:14.277Z,19.04
2022-08-23T03:37:16.631Z,19.07
2022-08-23T03:40:20.789Z,19.06
2022-08-23T03:43:23.060Z,19.05
2022-08-23T03:46:25.494Z,19.07
2022-08-23T03:49:28.235Z,19.01
2022-08-23T03:52:31.164Z,18.96
2022-08-23T03:55:34.142Z,18.92
2022-08-23T03:58:46.284Z,18.85
2022-08-23T04:01:49.218Z,18.82
2022-08-23T04:04:51.760Z,19.05
2022-08-23T04:07:55.449Z,19.09
2022-08-23T04:10:58.240Z,19.09
2022-08-23T04:14:00.837Z,19.07
2022-08-23T04:17:03.616Z,19.22
2022-08-23T04:20:07.296Z,19.16
2022-08-23T04:23:10.317Z,19.24
2022-08-23T04:26:13.586Z,19.24
2022-08-23T04:29:31.436Z,19.07
2022-08-23T04:32:37.118Z,18.98
2022-08-23T04:35:41.506Z,19.29
2022-08-23T04:38:44.207Z,19.23
2022-08-23T04:42:06.276Z,19.20
2022-08-23T04:45:09.234Z,19.41
2022-08-23T04:48:12.225Z,19.55
2022-08-23T04:51:16.510Z,19.43
2022-08-23T04:54:21.241Z,19.27
2022-08-23T04:57:25.908Z,19.24
2022-08-23T05:00:28.431Z,19.41
2022-08-23T05:03:32.088Z,19.36
2022-08-23T05:06:35.708Z,19.27
2022-08-23T05:09:38.242Z,19.45
2022-08-23T05:12:41.558Z,19.45
2022-08-23T05:15:44.490Z,19.40
2022-08-23T05:18:47.176Z,19.14
2022-08-23T05:21:52.895Z,19.34
2022-08-23T05:25:00.194Z,19.30
2022-08-23T05:28:03.363Z,19.54
2022-08-23T05:31:11.448Z,19.56
2022-08-23T05:34:14.297Z,19.71
2022-08-23T05:37:19.547Z,19.85
2022-08-23T05:40:22.345Z,20.12
2022-08-23T05:43:26.422Z,20.27
2022-08-23T05:46:29.166Z,20.36
2022-08-23T05:49:36.292Z,20.46
2022-08-23T05:52:40.476Z,20.49
2022-08-23T05:55:43.451Z,20.69
2022-08-23T05:58:47.094Z,20.58
2022-08-23T06:01:50.269Z,20.62
2022-08-23T06:04:57.142Z,20.71
2022-08-23T06:08:01.357Z,20.70
2022-08-23T06:11:07.149Z,20.42
2022-08-23T06:14:09.828Z,20.38
2022-08-23T06:17:12.524Z,20.66
2022-08-23T06:20:16.140Z,20.87
2022-08-23T06:23:22.123Z,20.98
2022-08-23T06:26:24.320Z,21.07
2022-08-23T06:29:27.761Z,20.74
2022-08-23T06:32:36.137Z,20.73
2022-08-23T06:35:41.009Z,20.71
2022-08-23T06:38:45.254Z,20.92
2022-08-23T06:41:51.511Z,21.28
2022-08-23T06:44:57.224Z,21.20
2022-08-23T06:48:10.773Z,21.35
2022-08-23T06:51:24.238Z,21.41
2022-08-23T06:54:31.699Z,21.47
2022-08-23T06:57:34.903Z,21.17
2022-08-23T07:00:39.644Z,21.02
2022-08-23T07:03:43.577Z,21.30
2022-08-23T07:06:51.381Z,22.11
2022-08-23T07:09:53.990Z,23.05
2022-08-23T07:12:58.055Z,23.81
2022-08-23T07:16:01.032Z,23.32
2022-08-23T07:19:04.039Z,23.00
2022-08-23T07:22:06.625Z,22.98
2022-08-23T07:25:09.743Z,22.18
2022-08-23T07:28:12.643Z,21.85
2022-08-23T07:31:42.055Z,21.83
2022-08-23T07:34:44.838Z,22.29
2022-08-23T07:37:47.449Z,22.59
2022-08-23T07:40:53.940Z,22.78
2022-08-23T07:43:59.925Z,22.69
2022-08-23T07:47:02.548Z,23.14
2022-08-23T07:50:05.849Z,23.33
2022-08-23T07:53:08.904Z,23.51
2022-08-23T07:56:13.970Z,23.89
2022-08-23T07:59:16.577Z,24.35
2022-08-23T08:02:23.700Z,24.10
2022-08-23T08:05:26.274Z,24.42
2022-08-23T08:08:29.182Z,24.59
2022-08-23T08:11:35.454Z,24.63
2022-08-23T08:14:38.286Z,24.20
2022-08-23T08:17:41.664Z,24.04
2022-08-23T08:20:44.667Z,23.75
2022-08-23T08:24:00.300Z,24.20
2022-08-23T08:27:03.667Z,24.53
2022-08-23T08:30:08.076Z,24.88
2022-08-23T08:33:10.814Z,24.74
2022-08-23T08:36:32.751Z,24.87
2022-08-23T08:39:35.541Z,24.56
2022-08-23T08:42:44.850Z,24.58
2022-08-23T08:46:31.849Z,24.25
2022-08-23T08:50:03.562Z,23.99
2022-08-23T08:53:11.837Z,23.91
2022-08-23T08:56:32.115Z,23.57
2022-08-23T08:59:57.769Z,23.39
2022-08-23T09:03:06.000Z,23.76
2022-08-23T09:06:45.448Z,24.07
2022-08-23T09:10:19.904Z,24.54
2022-08-23T09:13:46.139Z,25.02
2022-08-23T09:16:56.894Z,25.47
2022-08-23T09:20:02.401Z,25.52
2022-08-23T09:23:07.883Z,25.62
2022-08-23T09:26:31.228Z,25.53
2022-08-23T09:29:35.401Z,25.80
2022-08-23T09:32:42.974Z,25.83
2022-08-23T09:36:04.530Z,25.24
2022-08-23T09:39:23.670Z,24.91
2022-08-23T09:43:14.066Z,24.91
2022-08-23T09:46:30.374Z,25.31
2022-08-23T09:49:32.682Z,25.88
2022-08-23T09:52:39.086Z,25.62
2022-08-23T09:55:51.303Z,25.65
2022-08-23T09:58:54.473Z,25.60
2022-08-23T10:01:59.850Z,25.08
2022-08-23T10:05:16.454Z,25.32
2022-08-23T10:08:51.934Z,25.63
2022-08-23T10:11:58.046Z,25.94
2022-08-23T10:15:00.346Z,26.27
2022-08-23T10:18:39.790Z,26.83
2022-08-23T10:21:47.215Z,27.85
2022-08-23T10:25:11.718Z,28.40
2022-08-23T10:28:45.338Z,28.66
2022-08-23T10:32:00.134Z,27.96
2022-08-23T10:35:40.357Z,29.37
2022-08-23T10:38:48.121Z,29.16
2022-08-23T10:42:08.115Z,27.90
2022-08-23T10:45:26.314Z,27.44
2022-08-23T10:48:34.446Z,27.10
2022-08-23T10:51:42.112Z,27.92
2022-08-23T10:55:06.261Z,28.90
2022-08-23T10:58:15.830Z,30.08
2022-08-23T11:01:26.735Z,31.46
2022-08-23T11:04:49.262Z,31.83
2022-08-23T11:08:08.731Z,32.98
2022-08-23T11:11:39.452Z,33.86
2022-08-23T11:15:07.957Z,34.03
2022-08-23T11:18:36.241Z,33.16
2022-08-23T11:21:40.099Z,35.18
2022-08-23T11:25:05.759Z,35.25
2022-08-23T11:28:21.791Z,36.71
2022-08-23T11:31:32.255Z,33.59
2022-08-23T11:34:43.751Z,36.10
2022-08-23T11:38:03.945Z,33.90
2022-08-23T11:41:23.756Z,34.40
2022-08-23T11:44:40.751Z,34.13
2022-08-23T11:47:44.494Z,32.67
2022-08-23T11:51:08.778Z,35.57
2022-08-23T11:54:35.954Z,35.92
2022-08-23T11:58:03.528Z,36.04
2022-08-23T12:01:12.612Z,36.14
2022-08-23T12:04:37.539Z,36.94
2022-08-23T12:08:03.085Z,36.51
2022-08-23T12:11:10.279Z,36.76
2022-08-23T12:14:30.812Z,37.49
2022-08-23T12:17:40.320Z,36.10
2022-08-23T12:20:43.407Z,35.70
2022-08-23T12:23:57.466Z,35.79
2022-08-23T12:27:44.318Z,36.07
2022-08-23T12:31:13.473Z,33.85
2022-08-23T12:34:33.884Z,33.87
2022-08-23T12:38:00.224Z,34.77
2022-08-23T12:41:22.330Z,33.66
2022-08-23T12:44:28.394Z,32.76
2022-08-23T12:47:30.873Z,34.43
2022-08-23T12:50:40.174Z,35.05
2022-08-23T12:53:45.696Z,34.40
2022-08-23T12:56:53.852Z,34.46
2022-08-23T13:00:17.052Z,34.46
2022-08-23T13:03:34.706Z,35.47
2022-08-23T13:06:51.426Z,33.86
2022-08-23T13:09:55.569Z,34.42
2022-08-23T13:12:58.288Z,34.79
2022-08-23T13:16:03.193Z,34.69
2022-08-23T13:19:27.901Z,35.02
2022-08-23T13:22:32.252Z,33.96
2022-08-23T13:25:37.666Z,33.20
2022-08-23T13:28:40.026Z,31.42
2022-08-23T13:32:23.603Z,30.63
2022-08-23T13:35:44.550Z,30.62
2022-08-23T13:38:49.817Z,30.16
2022-08-23T13:41:52.460Z,30.29
2022-08-23T13:44:55.037Z,30.33
2022-08-23T13:48:18.849Z,30.01
2022-08-23T13:51:41.783Z,30.27
2022-08-23T13:54:44.525Z,29.91
2022-08-23T13:57:46.605Z,29.87
2022-08-23T14:00:55.349Z,29.83
2022-08-23T14:03:58.330Z,29.87
2022-08-23T14:07:00.466Z,29.62
2022-08-23T14:10:04.630Z,28.74
2022-08-23T14:13:08.119Z,27.93
2022-08-23T14:23:08.668Z,27.42
2022-08-23T14:26:17.922Z,26.96
2022-08-23T14:29:22.473Z,26.60
2022-08-23T14:32:25.596Z,26.08
2022-08-23T14:35:29.370Z,26.07
2022-08-23T14:38:31.870Z,25.97
2022-08-23T14:41:34.339Z,25.94
2022-08-23T14:44:36.604Z,26.00
2022-08-23T14:47:39.728Z,26.08
2022-08-23T14:50:42.465Z,25.92
2022-08-23T14:53:44.897Z,25.86
2022-08-23T14:56:47.925Z,25.78
2022-08-23T14:59:50.566Z,25.74
2022-08-23T15:02:53.053Z,25.67
2022-08-23T15:05:55.463Z,25.65
2022-08-23T15:08:57.681Z,25.63
2022-08-23T15:15:22.335Z,25.34
2022-08-23T15:18:25.110Z,25.42
2022-08-23T15:21:27.622Z,25.18
2022-08-23T15:24:31.704Z,25.05
2022-08-23T15:27:34.474Z,25.08
2022-08-23T15:30:37.163Z,25.09
2022-08-23T15:33:39.979Z,25.00
2022-08-23T15:36:43.118Z,24.90
2022-08-23T15:39:46.497Z,24.98
2022-08-23T15:42:49.108Z,25.24
2022-08-23T15:45:51.672Z,25.29
2022-08-23T15:48:58.806Z,25.40
2022-08-23T15:52:02.119Z,25.32
2022-08-23T15:55:06.146Z,25.16
2022-08-23T15:58:16.634Z,25.25
2022-08-23T16:01:22.821Z,24.97
2022-08-23T16:04:26.792Z,24.85
2022-08-23T16:07:37.727Z,24.94
2022-08-23T16:10:40.798Z,25.02
2022-08-23T16:13:46.224Z,24.81
2022-08-23T16:16:48.663Z,24.75
2022-08-23T16:19:51.002Z,24.79
2022-08-23T16:22:53.444Z,24.74
2022-08-23T16:26:00.892Z,24.72
2022-08-23T16:29:07.953Z,24.58
2022-08-23T16:32:10.080Z,24.26
2022-08-23T16:35:12.963Z,24.15
2022-08-23T16:38:15.112Z,24.07
2022-08-23T16:41:17.680Z,24.00
2022-08-23T16:44:20.061Z,23.85
2022-08-23T16:47:22.455Z,23.85
2022-08-23T16:50:24.700Z,23.83
2022-08-23T16:53:27.382Z,23.78
2022-08-23T16:56:29.793Z,23.63
2022-08-23T16:59:36.118Z,23.45
2022-08-23T17:02:41.370Z,23.36
2022-08-23T17:05:43.714Z,23.30
2022-08-23T17:08:45.934Z,23.18
2022-08-23T17:11:48.866Z,23.04
2022-08-23T17:14:51.633Z,23.04
2022-08-23T17:17:54.188Z,22.88
2022-08-23T17:20:56.302Z,22.66
2022-08-23T17:23:58.955Z,22.59
2022-08-23T17:27:01.315Z,22.47
2022-08-23T17:30:08.957Z,22.40
2022-08-23T17:33:11.303Z,22.33
2022-08-23T17:36:34.839Z,22.26
2022-08-23T17:39:36.960Z,22.20
2022-08-23T17:42:39.354Z,22.11
2022-08-23T17:45:46.561Z,22.02
2022-08-23T17:48:49.110Z,21.98
2022-08-23T17:51:51.225Z,21.81
2022-08-23T17:54:54.232Z,21.83
2022-08-23T17:58:03.651Z,21.73
2022-08-23T18:01:07.096Z,21.73
2022-08-23T18:04:09.658Z,21.64
2022-08-23T18:07:11.859Z,21.58
2022-08-23T18:10:14.355Z,21.57
2022-08-23T18:13:16.472Z,21.50
2022-08-23T18:16:18.901Z,21.44
2022-08-23T18:19:21.184Z,21.45
2022-08-23T18:22:23.717Z,21.41
2022-08-23T18:25:26.928Z,21.42
2022-08-23T18:28:29.348Z,21.24
2022-08-23T18:31:33.085Z,21.24
2022-08-23T18:34:36.651Z,21.28
2022-08-23T18:37:38.858Z,21.25
2022-08-23T18:40:47.117Z,21.14
2022-08-23T18:43:49.851Z,21.16
2022-08-23T18:46:52.279Z,21.20
2022-08-23T18:49:54.471Z,21.09
2022-08-23T18:52:57.127Z,21.03
2022-08-23T18:55:59.367Z,21.08
2022-08-23T18:59:03.237Z,21.15
2022-08-23T19:02:05.713Z,21.05
2022-08-23T19:05:08.912Z,21.06
2022-08-23T19:08:12.775Z,21.14
2022-08-23T19:11:15.825Z,21.11
2022-08-23T19:14:19.315Z,21.03
2022-08-23T19:17:21.738Z,21.02
2022-08-23T19:20:25.166Z,20.97
2022-08-23T19:23:28.345Z,20.92
2022-08-23T19:26:34.306Z,20.86
2022-08-23T19:29:36.839Z,20.86
2022-08-23T19:32:39.552Z,20.77
2022-08-23T19:35:43.179Z,20.76
2022-08-23T19:38:45.554Z,20.71
2022-08-23T19:41:48.611Z,20.68
2022-08-23T19:44:50.724Z,20.64
2022-08-23T19:47:54.248Z,20.65
2022-08-23T19:50:56.378Z,20.63
2022-08-23T19:54:04.682Z,20.61
2022-08-23T19:57:10.008Z,20.56
2022-08-23T20:00:19.583Z,20.55
2022-08-23T20:03:22.325Z,20.52
2022-08-23T20:06:24.597Z,20.52
2022-08-23T20:09:29.043Z,20.43
2022-08-23T20:12:33.076Z,20.42
2022-08-23T20:15:37.617Z,20.40
2022-08-23T20:18:41.000Z,20.35
2022-08-23T20:21:43.515Z,20.40
2022-08-23T20:24:51.899Z,20.34
2022-08-23T20:27:55.050Z,20.35
2022-08-23T20:30:59.101Z,20.33
2022-08-23T20:34:02.998Z,20.27
2022-08-23T20:37:05.417Z,20.27
2022-08-23T20:40:11.991Z,20.22
2022-08-23T20:43:14.209Z,20.22
2022-08-23T20:46:17.239Z,20.20
2022-08-23T20:49:19.614Z,20.14
2022-08-23T20:52:22.071Z,20.14
2022-08-23T20:55:24.673Z,20.17
2022-08-23T20:58:28.177Z,20.17
2022-08-23T21:01:30.338Z,20.16
2022-08-23T21:04:32.720Z,20.09
2022-08-23T21:07:35.197Z,20.13
2022-08-23T21:10:39.326Z,20.11
2022-08-23T21:13:43.961Z,20.11
2022-08-23T21:16:47.345Z,20.19
2022-08-23T21:19:49.442Z,20.23
2022-08-23T21:22:51.983Z,20.19
2022-08-23T21:25:55.545Z,20.20
2022-08-23T21:28:58.816Z,20.19
2022-08-23T21:32:00.950Z,20.12
2022-08-23T21:35:04.577Z,20.10
2022-08-23T21:38:06.576Z,20.10
2022-08-23T21:41:11.501Z,19.99
2022-08-23T21:44:19.659Z,20.03
2022-08-23T21:47:22.113Z,20.00
2022-08-23T21:50:24.702Z,19.86
2022-08-23T21:53:31.025Z,19.86
2022-08-23T21:56:33.189Z,19.87
2022-08-23T21:59:35.622Z,19.83
2022-08-23T22:02:37.833Z,19.80
2022-08-23T22:05:42.350Z,19.76
2022-08-23T22:08:45.921Z,19.80
2022-08-23T22:11:51.415Z,19.70
2022-08-23T22:14:53.555Z,19.66
2022-08-23T22:17:56.085Z,19.64
2022-08-23T22:20:59.125Z,19.65
2022-08-23T22:24:01.690Z,19.67
2022-08-23T22:27:04.207Z,19.63
2022-08-23T22:30:07.098Z,19.65
2022-08-23T22:33:09.873Z,19.63
2022-08-23T22:36:19.198Z,19.52
2022-08-23T22:39:22.825Z,19.42
2022-08-23T22:42:25.465Z,19.49
2022-08-23T22:45:27.623Z,19.53
2022-08-23T22:48:32.536Z,19.66
2022-08-23T22:51:36.658Z,19.71
2022-08-23T22:54:39.146Z,19.56
2022-08-23T22:57:41.351Z,19.46
2022-08-23T23:00:44.275Z,19.50
2022-08-23T23:03:46.678Z,19.58
2022-08-23T23:06:51.989Z,19.42
2022-08-23T23:09:54.121Z,19.36
2022-08-23T23:12:56.555Z,19.27
2022-08-23T23:16:05.061Z,19.32
2022-08-23T23:19:26.094Z,19.46
2022-08-23T23:22:28.213Z,19.38
2022-08-23T23:25:30.633Z,19.34
2022-08-23T23:28:36.562Z,19.41
2022-08-23T23:31:40.125Z,19.36
2022-08-23T23:34:42.451Z,19.46
2022-08-23T23:37:49.033Z,19.44
2022-08-23T23:40:52.018Z,19.41
2022-08-23T23:43:54.421Z,19.31
2022-08-23T23:46:56.585Z,19.30
2022-08-23T23:49:58.988Z,19.32
2022-08-23T23:53:01.095Z,19.35
2022-08-23T23:56:06.682Z,19.29
2022-08-23T23:59:09.345Z,19.22
